Time;durP1;ratioP1;P1;durP2;ratioP2;P2;SDS_P1;SDS_P2;PMS_P1;PMS_P2;Temp;Humidity;BMP_temperature;BMP_pressure;BME280_temperature;BME280_humidity;BME280_pressure;Samples;Min_cycle;Max_cycle;Signal;HPM_P1;HPM_P2
2023/01/05 00:01:20;;;;;;;;;;;;;;;8.74;100.00;100291.94;4888159;29;20045;-81
2023/01/05 00:03:47;;;;;;;;;;;;;;;8.75;100.00;100288.31;4900686;29;20371;-81
2023/01/05 00:06:14;;;;;;;;;;;;;;;8.76;100.00;100296.16;4902336;29;20014;-81
2023/01/05 00:08:40;;;;;;;;;;;;;;;8.76;100.00;100285.56;4883029;29;19994;-81
2023/01/05 00:22:32;;;;;;;;;;;;;;;8.84;100.00;100282.34;4866092;29;19923;-80
2023/01/05 00:25:03;;;;;;;;;;;;;;;8.84;100.00;100256.69;4890526;29;19923;-81
2023/01/05 00:27:37;;;;;;;;;;;;;;;8.85;100.00;100262.84;4891675;29;20295;-81
2023/01/05 00:30:04;;;;;;;;;;;;;;;8.85;100.00;100269.00;4899523;29;20228;-80
2023/01/05 00:32:31;;;;;;;;;;;;;;;8.87;100.00;100271.53;4908300;29;19928;-81
2023/01/05 00:34:57;;;;;;;;;;;;;;;8.86;100.00;100260.09;4905220;29;19922;-80
2023/01/05 00:37:25;;;;;;;;;;;;;;;8.86;100.00;100270.69;4878781;29;19923;-80
2023/01/05 00:39:52;;;;;;;;;;;;;;;8.88;100.00;100254.69;4919757;29;19950;-80
2023/01/05 00:42:19;;;;;;;;;;;;;;;8.89;100.00;100254.56;4890619;29;20021;-81
2023/01/05 00:44:46;;;;;;;;;;;;;;;8.89;100.00;100248.41;4903449;29;20014;-81
2023/01/05 00:47:13;;;;;;;;;;;;;;;8.93;100.00;100259.63;4877764;29;19923;-80
2023/01/05 00:49:39;;;;;;;;;;;;;;;8.94;100.00;100245.44;4890601;29;19965;-81
2023/01/05 00:52:06;;;;;;;;;;;;;;;8.94;100.00;100240.13;4878309;29;19931;-81
2023/01/05 00:54:33;;;;;;;;;;;;;;;8.97;100.00;100234.59;4894098;29;20025;-80
2023/01/05 00:56:59;;;;;;;;;;;;;;;8.96;100.00;100236.41;4893166;29;19933;-80
2023/01/05 00:59:26;;;;;;;;;;;;;;;8.97;100.00;100238.09;4874550;29;19941;-81
2023/01/05 01:01:53;;;;;;;;;;;;;;;8.95;100.00;100240.00;4891543;29;20438;-81
2023/01/05 01:04:20;;;;;;;;;;;;;;;8.99;100.00;100237.97;4913392;29;19923;-80
2023/01/05 01:06:47;;;;;;;;;;;;;;;8.99;100.00;100238.81;4903577;29;19942;-80
2023/01/05 01:09:13;;;;;;;;;;;;;;;9.00;100.00;100239.66;4891910;29;19951;-80
2023/01/05 01:11:40;;;;;;;;;;;;;;;8.99;100.00;100253.88;4886747;29;19931;-85
2023/01/05 01:14:07;;;;;;;;;;;;;;;9.02;100.00;100254.47;4869771;29;19930;-80
2023/01/05 01:16:33;;;;;;;;;;;;;;;9.04;100.00;100243.78;4902140;29;20279;-80
2023/01/05 01:19:00;;;;;;;;;;;;;;;9.03;100.00;100235.00;4869872;29;20018;-80
2023/01/05 01:21:31;;;;;;;;;;;;;;;9.04;100.00;100244.63;4902935;29;19976;-80
2023/01/05 01:23:57;;;;;;;;;;;;;;;9.05;100.00;100248.09;4904468;29;20426;-80
2023/01/05 01:26:24;;;;;;;;;;;;;;;9.07;100.00;100225.00;4904142;29;20370;-80
2023/01/05 01:28:50;;;;;;;;;;;;;;;9.06;100.00;100223.31;4878396;29;20350;-80
2023/01/05 01:31:17;;;;;;;;;;;;;;;9.11;100.00;100206.09;4872883;29;20295;-80
2023/01/05 01:33:44;;;;;;;;;;;;;;;9.09;100.00;100223.91;4876690;29;19978;-81
2023/01/05 01:36:11;;;;;;;;;;;;;;;9.10;100.00;100220.28;4881488;29;20006;-80
2023/01/05 01:38:38;;;;;;;;;;;;;;;9.10;100.00;100228.25;4903983;29;20013;-82
2023/01/05 01:41:04;;;;;;;;;;;;;;;9.12;100.00;100217.53;4886597;29;20398;-81
2023/01/05 01:43:48;;;;;;;;;;;;;;;9.15;100.00;100232.38;4899157;29;19927;-80
2023/01/05 01:46:17;;;;;;;;;;;;;;;9.16;100.00;100199.59;4904133;29;19926;-80
2023/01/05 01:48:46;;;;;;;;;;;;;;;9.18;100.00;100218.88;4888521;29;19953;-83
2023/01/05 01:51:14;;;;;;;;;;;;;;;9.16;100.00;100226.97;4897367;29;19923;-80
2023/01/05 01:53:41;;;;;;;;;;;;;;;9.19;100.00;100225.88;4870357;29;19946;-81
2023/01/05 01:56:09;;;;;;;;;;;;;;;9.18;100.00;100225.00;4920816;29;19930;-80
2023/01/05 01:58:35;;;;;;;;;;;;;;;9.21;100.00;100218.63;4872306;29;20031;-80
2023/01/05 02:01:02;;;;;;;;;;;;;;;9.20;100.00;100233.69;4868879;29;19923;-80
2023/01/05 02:03:29;;;;;;;;;;;;;;;9.21;100.00;100231.88;4876671;29;19923;-81
2023/01/05 02:05:56;;;;;;;;;;;;;;;9.23;100.00;100227.31;4901165;29;19962;-80
2023/01/05 02:08:30;;;;;;;;;;;;;;;9.23;100.00;100229.97;4907477;29;20379;-80
2023/01/05 02:11:09;;;;;;;;;;;;;;;9.25;100.00;100218.28;4888491;29;19982;-81
2023/01/05 02:14:02;;;;;;;;;;;;;;;9.25;100.00;100220.94;4904270;29;20382;-80
2023/01/05 02:16:52;;;;;;;;;;;;;;;9.26;100.00;100227.94;4868583;29;20564;-82
2023/01/05 02:19:31;;;;;;;;;;;;;;;9.26;100.00;100222.63;4845420;29;19930;-81
2023/01/05 02:22:01;;;;;;;;;;;;;;;9.26;100.00;100213.81;4911519;29;19930;-81
2023/01/05 02:24:41;;;;;;;;;;;;;;;9.27;100.00;100237.56;4912806;29;19930;-81
2023/01/05 02:27:28;;;;;;;;;;;;;;;9.28;100.00;100222.50;4831035;29;20021;-80
2023/01/05 02:29:59;;;;;;;;;;;;;;;9.28;100.00;100211.91;4820904;29;20387;-81
2023/01/05 02:32:33;;;;;;;;;;;;;;;9.28;100.00;100202.16;4891234;29;19922;-80
2023/01/05 02:35:00;;;;;;;;;;;;;;;9.29;100.00;100210.97;4858455;29;19931;-80
2023/01/05 02:37:46;;;;;;;;;;;;;;;9.30;100.00;100212.63;4903775;29;20585;-80
2023/01/05 02:40:19;;;;;;;;;;;;;;;9.31;100.00;100196.63;4873376;29;20388;-80
2023/01/05 02:42:46;;;;;;;;;;;;;;;9.31;100.00;100204.59;4871054;29;19930;-81
2023/01/05 02:45:13;;;;;;;;;;;;;;;9.32;100.00;100206.25;4890309;29;20592;-81
2023/01/05 02:47:41;;;;;;;;;;;;;;;9.32;100.00;100203.59;4904273;29;19978;-80
2023/01/05 02:50:28;;;;;;;;;;;;;;;9.33;100.00;100201.78;4883305;29;20348;-80
2023/01/05 02:53:09;;;;;;;;;;;;;;;9.33;100.00;100184.09;4861170;29;19962;-80
2023/01/05 02:55:51;;;;;;;;;;;;;;;9.34;100.00;100188.44;4902122;29;20290;-80
2023/01/05 02:58:30;;;;;;;;;;;;;;;9.34;100.00;100182.28;4874567;29;20405;-81
2023/01/05 03:01:00;;;;;;;;;;;;;;;9.34;100.00;100172.53;4871068;29;19935;-81
2023/01/05 03:03:29;;;;;;;;;;;;;;;9.35;100.00;100168.06;4888032;29;19982;-81
2023/01/05 03:06:00;;;;;;;;;;;;;;;9.38;100.00;100174.94;4903705;29;19929;-81
2023/01/05 03:08:28;;;;;;;;;;;;;;;9.40;100.00;100162.41;4889291;29;19934;-80
2023/01/05 03:13:55;;;;;;;;;;;;;;;9.40;100.00;100162.41;4874324;29;19950;-81
2023/01/05 03:16:29;;;;;;;;;;;;;;;9.41;100.00;100177.34;4870725;29;20002;-80
2023/01/05 03:35:59;;;;;;;;;;;;;;;9.49;100.00;100166.97;4808980;29;19928;-81
2023/01/05 03:38:27;;;;;;;;;;;;;;;9.49;100.00;100166.97;4798944;29;19936;-81
2023/01/05 03:40:54;;;;;;;;;;;;;;;9.49;100.00;100165.19;4891917;29;20292;-80
2023/01/05 03:43:21;;;;;;;;;;;;;;;9.53;100.00;100173.75;4886062;29;20221;-80
2023/01/05 03:45:53;;;;;;;;;;;;;;;9.52;100.00;100169.41;4913848;29;19931;-80
2023/01/05 03:48:23;;;;;;;;;;;;;;;9.52;100.00;100182.66;4889773;29;19923;-80
2023/01/05 03:50:50;;;;;;;;;;;;;;;9.57;100.00;100180.50;4871783;29;19931;-81
2023/01/05 03:53:19;;;;;;;;;;;;;;;9.55;100.00;100174.47;4918582;29;20335;-80
2023/01/05 03:55:46;;;;;;;;;;;;;;;9.54;100.00;100176.28;4882047;29;19927;-80
2023/01/05 03:58:13;;;;;;;;;;;;;;;9.56;100.00;100192.03;4919445;29;19927;-81
2023/01/05 04:00:44;;;;;;;;;;;;;;;9.55;100.00;100190.38;4918820;29;19927;-80
2023/01/05 04:03:13;;;;;;;;;;;;;;;9.57;100.00;100188.44;4891190;29;20629;-80
2023/01/05 04:05:40;;;;;;;;;;;;;;;9.59;100.00;100193.63;4887340;29;20393;-80
2023/01/05 04:08:07;;;;;;;;;;;;;;;9.57;100.00;100207.00;4893516;29;19985;-80
2023/01/05 04:10:34;;;;;;;;;;;;;;;9.58;100.00;100195.44;4891277;29;19979;-80
2023/01/05 04:13:01;;;;;;;;;;;;;;;9.59;100.00;100193.63;4894698;29;19991;-80
2023/01/05 04:15:28;;;;;;;;;;;;;;;9.60;100.00;100200.63;4904011;29;20374;-80
2023/01/05 04:17:55;;;;;;;;;;;;;;;9.60;100.00;100190.84;4884139;29;19923;-80
2023/01/05 04:20:21;;;;;;;;;;;;;;;9.59;100.00;100198.91;4870224;29;19971;-80
2023/01/05 04:22:49;;;;;;;;;;;;;;;9.60;100.00;100205.94;4890909;29;20423;-80
2023/01/05 04:25:18;;;;;;;;;;;;;;;9.61;100.00;100223.50;4877274;29;19998;-80
2023/01/05 04:27:45;;;;;;;;;;;;;;;9.61;100.00;100223.50;4876613;29;19982;-80
2023/01/05 04:30:12;;;;;;;;;;;;;;;9.61;100.00;100212.91;4883191;29;19945;-80
2023/01/05 04:32:38;;;;;;;;;;;;;;;9.62;100.00;100218.09;4903742;29;20371;-81
2023/01/05 04:35:09;;;;;;;;;;;;;;;9.61;100.00;100227.00;4903687;29;20367;-80
2023/01/05 04:37:39;;;;;;;;;;;;;;;9.63;100.00;100229.53;4894545;29;20287;-80
2023/01/05 04:40:06;;;;;;;;;;;;;;;9.65;100.00;100228.47;4888619;29;20064;-80
2023/01/05 04:42:41;;;;;;;;;;;;;;;9.67;100.00;100244.25;4891612;29;19930;-80
2023/01/05 04:45:09;;;;;;;;;;;;;;;9.66;100.00;100251.34;4908667;29;19923;-81
2023/01/05 04:47:36;;;;;;;;;;;;;;;9.65;100.00;100251.47;4883166;29;19975;-80
2023/01/05 04:50:04;;;;;;;;;;;;;;;9.64;100.00;100242.69;4859998;29;19930;-81
2023/01/05 04:52:30;;;;;;;;;;;;;;;9.64;100.00;100245.34;4902660;29;19978;-81
2023/01/05 04:54:57;;;;;;;;;;;;;;;9.66;100.00;100250.50;4914109;29;19929;-81
2023/01/05 04:57:25;;;;;;;;;;;;;;;9.67;100.00;100252.22;4856215;29;20018;-81
2023/01/05 04:59:52;;;;;;;;;;;;;;;9.68;100.00;100261.84;4917032;29;19923;-81
2023/01/05 05:02:19;;;;;;;;;;;;;;;9.68;100.00;100267.97;4889491;29;19943;-86
2023/01/05 05:04:48;;;;;;;;;;;;;;;9.68;100.00;100267.16;4882116;29;20023;-81
2023/01/05 05:07:15;;;;;;;;;;;;;;;9.69;100.00;100272.34;4905434;29;19923;-81
2023/01/05 05:09:42;;;;;;;;;;;;;;;9.68;100.00;100264.50;4901328;29;19923;-81
2023/01/05 05:12:09;;;;;;;;;;;;;;;9.68;100.00;100272.44;4908112;29;19923;-81
2023/01/05 05:14:37;;;;;;;;;;;;;;;9.69;100.00;100266.16;4899155;29;19923;-81
2023/01/05 05:17:04;;;;;;;;;;;;;;;9.68;100.00;100294.50;4917535;29;19923;-81
2023/01/05 05:19:31;;;;;;;;;;;;;;;9.70;100.00;100284.63;4908594;29;21360;-81
2023/01/05 05:21:58;;;;;;;;;;;;;;;9.70;100.00;100281.97;4874724;29;19962;-81
2023/01/05 05:24:26;;;;;;;;;;;;;;;9.71;100.00;100291.59;4903259;29;19941;-80
2023/01/05 05:26:53;;;;;;;;;;;;;;;9.71;100.00;100296.06;4895550;29;20392;-80
2023/01/05 05:29:19;;;;;;;;;;;;;;;9.69;100.00;100304.16;4891099;29;19923;-81
2023/01/05 05:31:46;;;;;;;;;;;;;;;9.71;100.00;100304.88;4860286;29;19923;-81
2023/01/05 05:34:13;;;;;;;;;;;;;;;9.69;100.00;100313.91;4888539;29;19979;-80
2023/01/05 05:36:39;;;;;;;;;;;;;;;9.69;100.00;100329.81;4874853;29;20044;-80
2023/01/05 05:39:06;;;;;;;;;;;;;;;9.70;100.00;100331.53;4901977;29;19934;-80
2023/01/05 05:41:32;;;;;;;;;;;;;;;9.70;100.00;100337.66;4897659;29;19946;-81
2023/01/05 05:43:59;;;;;;;;;;;;;;;9.69;100.00;100346.59;4875341;29;20017;-81
2023/01/05 05:46:27;;;;;;;;;;;;;;;9.68;100.00;100336.09;4876217;29;19938;-81
2023/01/05 05:48:54;;;;;;;;;;;;;;;9.67;100.00;100348.50;4874913;29;20385;-81
2023/01/05 05:51:20;;;;;;;;;;;;;;;9.66;100.00;100352.09;4902838;29;19923;-81
2023/01/05 05:53:47;;;;;;;;;;;;;;;9.65;100.00;100365.50;4902329;29;19923;-82
2023/01/05 05:56:14;;;;;;;;;;;;;;;9.64;100.00;100358.50;4915949;29;20332;-81
2023/01/05 05:58:40;;;;;;;;;;;;;;;9.63;100.00;100370.91;4902525;29;19930;-80
2023/01/05 06:01:07;;;;;;;;;;;;;;;9.63;100.00;100370.06;4891579;29;19923;-82
2023/01/05 06:03:33;;;;;;;;;;;;;;;9.62;100.00;100371.88;4876303;29;19924;-81
2023/01/05 06:06:00;;;;;;;;;;;;;;;9.62;100.00;100371.88;4899202;29;19934;-81
2023/01/05 06:08:28;;;;;;;;;;;;;;;9.62;100.00;100382.50;4868949;29;19931;-81
2023/01/05 06:10:55;;;;;;;;;;;;;;;9.59;100.00;100377.41;4869516;29;19923;-81
2023/01/05 06:13:22;;;;;;;;;;;;;;;9.61;100.00;100383.44;4887195;29;20374;-81
2023/01/05 06:15:48;;;;;;;;;;;;;;;9.61;100.00;100386.09;4902131;29;20413;-80
2023/01/05 06:18:15;;;;;;;;;;;;;;;9.60;100.00;100399.47;4871426;29;19923;-81
2023/01/05 06:20:42;;;;;;;;;;;;;;;9.59;100.00;100405.72;4873950;29;19922;-81
2023/01/05 06:23:08;;;;;;;;;;;;;;;9.59;100.00;100408.38;4889821;29;20303;-81
2023/01/05 06:25:35;;;;;;;;;;;;;;;9.56;100.00;100422.69;4875365;29;19923;-81
2023/01/05 06:28:02;;;;;;;;;;;;;;;9.56;100.00;100414.75;4902896;29;19923;-81
2023/01/05 06:30:28;;;;;;;;;;;;;;;9.57;100.00;100416.47;4886683;29;19927;-81
2023/01/05 06:32:55;;;;;;;;;;;;;;;9.57;100.00;100419.94;4890603;29;20339;-81
2023/01/05 06:35:22;;;;;;;;;;;;;;;9.59;100.00;100421.63;4901054;29;19931;-81
2023/01/05 06:37:48;;;;;;;;;;;;;;;9.60;100.00;100421.53;4885340;29;19923;-81
2023/01/05 06:40:15;;;;;;;;;;;;;;;9.60;100.00;100415.38;4890232;29;20018;-81
2023/01/05 06:42:42;;;;;;;;;;;;;;;9.61;100.00;100415.25;4901935;29;19953;-80
2023/01/05 06:45:09;;;;;;;;;;;;;;;9.60;100.00;100424.19;4884330;29;19923;-80
2023/01/05 06:47:35;;;;;;;;;;;;;;;9.61;100.00;100425.00;4871729;29;19931;-80
2023/01/05 06:50:02;;;;;;;;;;;;;;;9.62;100.00;100419.59;4905988;29;19930;-80
2023/01/05 06:52:28;;;;;;;;;;;;;;;9.58;100.00;100426.09;4875416;29;20276;-80
2023/01/05 06:54:55;;;;;;;;;;;;;;;9.61;100.00;100425.00;4902199;29;19924;-80
2023/01/05 06:57:23;;;;;;;;;;;;;;;9.61;100.00;100414.41;4891630;29;19955;-80
2023/01/05 06:59:49;;;;;;;;;;;;;;;9.61;100.00;100411.75;4891920;29;20323;-80
2023/01/05 07:02:16;;;;;;;;;;;;;;;9.61;100.00;100415.25;4889888;29;19971;-81
2023/01/05 07:04:43;;;;;;;;;;;;;;;9.61;100.00;100417.91;4890810;29;19979;-80
2023/01/05 07:07:13;;;;;;;;;;;;;;;9.61;100.00;100425.00;4900115;29;19929;-80
2023/01/05 07:09:39;;;;;;;;;;;;;;;9.60;100.00;100426.81;4897583;29;19927;-80
2023/01/05 07:12:06;;;;;;;;;;;;;;;9.61;100.00;100433.81;4876556;29;19931;-79
2023/01/05 07:14:33;;;;;;;;;;;;;;;9.61;100.00;100435.63;4890043;29;19938;-80
2023/01/05 07:16:59;;;;;;;;;;;;;;;9.61;100.00;100428.50;4896964;29;19927;-80
2023/01/05 07:19:26;;;;;;;;;;;;;;;9.63;100.00;100439.00;4920207;29;23095;-80
2023/01/05 07:21:52;;;;;;;;;;;;;;;9.60;97.25;100434.78;4889107;29;19982;-79
2023/01/05 07:24:22;;;;;;;;;;;;;;;9.63;100.00;100426.59;4916429;29;20015;-80
2023/01/05 07:26:49;;;;;;;;;;;;;;;9.63;100.00;100429.25;4886261;29;20510;-79
2023/01/05 07:29:16;;;;;;;;;;;;;;;9.63;100.00;100431.91;4886143;29;19927;-80
2023/01/05 07:31:42;;;;;;;;;;;;;;;9.64;96.88;100446.00;4918415;29;19931;-80
2023/01/05 07:34:09;;;;;;;;;;;;;;;9.63;98.23;100453.09;4874616;29;19935;-81
2023/01/05 07:36:35;;;;;;;;;;;;;;;9.66;97.98;100460.81;4915935;29;19931;-80
2023/01/05 07:39:02;;;;;;;;;;;;;;;9.67;98.57;100451.94;4869899;29;20364;-80
2023/01/05 07:41:29;;;;;;;;;;;;;;;9.68;98.76;100445.66;4901888;29;19935;-80
2023/01/05 07:43:55;;;;;;;;;;;;;;;9.68;99.26;100445.66;4901411;29;19923;-81
2023/01/05 07:46:22;;;;;;;;;;;;;;;9.68;98.90;100445.66;4895299;29;19930;-80
2023/01/05 07:48:49;;;;;;;;;;;;;;;9.70;99.45;100449.03;4903643;29;20439;-80
2023/01/05 07:51:16;;;;;;;;;;;;;;;9.71;98.45;100455.19;4899445;29;19978;-80
2023/01/05 07:53:43;;;;;;;;;;;;;;;9.72;99.35;100449.78;4914434;29;19931;-80
2023/01/05 07:56:10;;;;;;;;;;;;;;;9.74;99.39;100453.16;4887874;29;19931;-80
2023/01/05 07:58:37;;;;;;;;;;;;;;;9.75;99.06;100454.00;4908392;29;20379;-80
2023/01/05 08:01:04;;;;;;;;;;;;;;;9.76;99.38;100453.03;4899879;29;20319;-80
2023/01/05 08:03:31;;;;;;;;;;;;;;;9.76;99.52;100451.22;4893057;29;20286;-80
2023/01/05 08:05:57;;;;;;;;;;;;;;;9.77;98.35;100454.75;4902439;29;20294;-80
2023/01/05 08:08:24;;;;;;;;;;;;;;;9.76;98.43;100456.53;4915752;29;20350;-80
2023/01/05 08:10:51;;;;;;;;;;;;;;;9.78;98.65;100464.38;4906741;29;19927;-80
2023/01/05 08:16:03;;;;;;;;;;;;;;;9.79;99.38;100476.66;4902576;29;20495;-80
2023/01/05 08:18:30;;;;;;;;;;;;;;;9.80;99.64;100480.19;4920660;28;20343;-80
2023/01/05 08:20:57;;;;;;;;;;;;;;;9.78;99.15;100481.13;4864057;29;19923;-80
2023/01/05 08:23:24;;;;;;;;;;;;;;;9.78;100.00;100494.41;4908687;29;19946;-81
2023/01/05 08:25:53;;;;;;;;;;;;;;;9.80;100.00;100493.44;4903293;29;19963;-80
2023/01/05 08:28:19;;;;;;;;;;;;;;;9.80;100.00;100496.09;4868478;29;20049;-79
2023/01/05 08:30:46;;;;;;;;;;;;;;;9.78;100.00;100494.41;4898495;29;20347;-81
2023/01/05 08:33:13;;;;;;;;;;;;;;;9.80;100.00;100496.09;4906954;29;20019;-78
2023/01/05 08:35:40;;;;;;;;;;;;;;;9.80;100.00;100499.59;4872917;29;19946;-79
2023/01/05 08:38:07;;;;;;;;;;;;;;;9.81;100.00;100498.63;4888366;29;21466;-79
2023/01/05 08:40:34;;;;;;;;;;;;;;;9.81;100.00;100501.28;4901303;29;20577;-79
2023/01/05 08:43:01;;;;;;;;;;;;;;;9.83;99.31;100507.31;4903100;29;19933;-79
2023/01/05 08:45:28;;;;;;;;;;;;;;;9.87;95.64;100508.78;4902672;29;21122;-78
2023/01/05 08:47:55;;;;;;;;;;;;;;;9.88;97.40;100515.78;4920225;29;19934;-78
2023/01/05 08:50:21;;;;;;;;;;;;;;;9.92;98.16;100513.72;4905586;29;19979;-79
2023/01/05 08:52:48;;;;;;;;;;;;;;;9.94;97.50;100514.47;4890001;29;19991;-78
2023/01/05 08:55:15;;;;;;;;;;;;;;;9.94;97.95;100520.63;4921267;29;20010;-79
2023/01/05 08:57:41;;;;;;;;;;;;;;;9.97;97.94;100522.19;4903001;29;19936;-79
2023/01/05 09:00:09;;;;;;;;;;;;;;;9.97;96.40;100519.53;4900456;29;19947;-79
2023/01/05 09:02:35;;;;;;;;;;;;;;;9.99;97.97;100530.88;4874661;29;19923;-79
2023/01/05 09:05:02;;;;;;;;;;;;;;;10.00;97.27;100528.13;4903211;29;20378;-80
2023/01/05 09:07:29;;;;;;;;;;;;;;;10.03;97.80;100545.63;4854116;29;19934;-79
2023/01/05 09:09:55;;;;;;;;;;;;;;;10.03;96.28;100544.78;4875898;29;21131;-79
2023/01/05 09:12:22;;;;;;;;;;;;;;;10.04;96.28;100539.34;4900494;29;19981;-80
2023/01/05 09:14:54;;;;;;;;;;;;;;;10.03;96.00;100540.31;4869776;29;19924;-79
2023/01/05 09:17:21;;;;;;;;;;;;;;;10.06;97.35;100534.78;4889683;29;19923;-79
2023/01/05 09:19:47;;;;;;;;;;;;;;;10.03;94.25;100542.13;4902349;29;20014;-78
2023/01/05 09:22:14;;;;;;;;;;;;;;;10.06;96.66;100542.75;4893272;29;19923;-79
2023/01/05 09:24:40;;;;;;;;;;;;;;;10.07;96.89;100543.59;4865545;29;19927;-79
2023/01/05 09:27:07;;;;;;;;;;;;;;;10.07;96.30;100543.59;4884322;29;19945;-78
2023/01/05 09:29:34;;;;;;;;;;;;;;;10.07;97.10;100541.75;4893555;29;20070;-78
2023/01/05 09:32:00;;;;;;;;;;;;;;;10.07;96.63;100554.19;4905613;29;19926;-79
2023/01/05 09:34:27;;;;;;;;;;;;;;;10.07;96.76;100555.03;4903361;29;20383;-80
2023/01/05 09:36:54;;;;;;;;;;;;;;;10.08;97.10;100564.72;4906223;29;19927;-79
2023/01/05 09:39:20;;;;;;;;;;;;;;;10.07;96.82;100555.03;4902158;29;20179;-79
2023/01/05 09:41:47;;;;;;;;;;;;;;;10.09;97.31;100560.25;4906394;29;19923;-79
2023/01/05 09:44:14;;;;;;;;;;;;;;;10.11;97.56;100566.28;4890310;29;19942;-79
2023/01/05 09:46:41;;;;;;;;;;;;;;;10.13;97.40;100556.41;4902117;29;19927;-79
2023/01/05 09:49:14;;;;;;;;;;;;;;;10.14;97.62;100568.69;4875490;29;19934;-79
2023/01/05 09:51:41;;;;;;;;;;;;;;;10.16;97.49;100570.28;4891440;29;19927;-78
2023/01/05 09:54:17;;;;;;;;;;;;;;;10.20;97.59;100573.53;4916277;29;19923;-80
2023/01/05 09:56:45;;;;;;;;;;;;;;;10.23;96.85;100573.31;4890887;29;20267;-79
2023/01/05 09:59:40;;;;;;;;;;;;;;;10.26;96.50;100566.94;4877153;29;19930;-79
2023/01/05 10:02:27;;;;;;;;;;;;;;;10.26;96.09;100564.28;4886617;29;19923;-79
2023/01/05 10:04:54;;;;;;;;;;;;;;;10.26;96.65;100564.28;4860252;29;20291;-79
2023/01/05 10:07:39;;;;;;;;;;;;;;;10.29;96.95;100566.75;4889856;29;19924;-79
2023/01/05 10:10:24;;;;;;;;;;;;;;;10.27;96.42;100561.50;4870366;29;20324;-79
2023/01/05 10:13:02;;;;;;;;;;;;;;;10.29;96.84;100554.31;4880132;29;20109;-78
2023/01/05 10:15:32;;;;;;;;;;;;;;;10.32;96.77;100561.19;4853435;29;19923;-77
2023/01/05 10:17:59;;;;;;;;;;;;;;;10.33;97.25;100562.88;4849318;29;20532;-78
2023/01/05 10:20:25;;;;;;;;;;;;;;;10.32;95.57;100562.03;4854058;29;19931;-78
2023/01/05 10:23:09;;;;;;;;;;;;;;;10.34;96.00;100556.63;4859806;29;19984;-78
2023/01/05 10:25:53;;;;;;;;;;;;;;;10.35;96.45;100566.25;4867530;29;19987;-78
2023/01/05 10:28:26;;;;;;;;;;;;;;;10.36;95.45;100547.56;4867562;29;19924;-79
2023/01/05 10:30:59;;;;;;;;;;;;;;;10.39;96.29;100544.69;4867996;29;19923;-78
2023/01/05 10:33:32;;;;;;;;;;;;;;;10.39;95.98;100550.00;4852886;29;19936;-80
2023/01/05 10:36:38;;;;;;;;;;;;;;;10.39;95.31;100552.66;4866382;29;19963;-78
2023/01/05 10:39:27;;;;;;;;;;;;;;;10.40;95.85;100538.38;4775523;29;19924;-79
2023/01/05 10:41:54;;;;;;;;;;;;;;;10.41;94.27;100545.41;4851013;29;20007;-80
2023/01/05 10:44:39;;;;;;;;;;;;;;;10.43;95.19;100548.81;4862660;29;19931;-79
2023/01/05 10:47:07;;;;;;;;;;;;;;;10.45;93.60;100555.78;4879326;29;19931;-78
2023/01/05 10:49:34;;;;;;;;;;;;;;;10.45;91.27;100553.13;4900803;29;20017;-78
2023/01/05 10:52:00;;;;;;;;;;;;;;;10.48;94.50;100559.06;4902804;29;19927;-77
2023/01/05 10:54:38;;;;;;;;;;;;;;;10.48;93.30;100550.25;4891610;29;19948;-78
2023/01/05 10:57:23;;;;;;;;;;;;;;;10.49;94.26;100544.81;4898265;29;19924;-79
2023/01/05 10:59:57;;;;;;;;;;;;;;;10.53;95.15;100561.34;4870801;29;20284;-78
2023/01/05 11:02:24;;;;;;;;;;;;;;;10.52;90.86;100547.25;4889938;29;19966;-78
2023/01/05 11:04:51;;;;;;;;;;;;;;;10.54;93.63;100553.28;4886303;29;19923;-78
2023/01/05 11:07:17;;;;;;;;;;;;;;;10.54;91.45;100555.09;4892275;29;20360;-79
2023/01/05 11:09:44;;;;;;;;;;;;;;;10.57;93.20;100552.19;4899291;29;19927;-79
2023/01/05 11:12:16;;;;;;;;;;;;;;;10.57;91.93;100563.66;4900742;29;20355;-79
2023/01/05 11:14:42;;;;;;;;;;;;;;;10.57;90.63;100547.72;4899876;29;19930;-78
2023/01/05 11:17:10;;;;;;;;;;;;;;;10.59;92.68;100558.25;4914928;29;19930;-78
2023/01/05 11:19:40;;;;;;;;;;;;;;;10.60;92.17;100566.06;4882918;29;19932;-78
2023/01/05 11:22:30;;;;;;;;;;;;;;;10.62;92.73;100572.13;4886233;29;19981;-78
2023/01/05 11:25:13;;;;;;;;;;;;;;;10.63;90.34;100567.66;4855436;29;19924;-78
2023/01/05 11:27:40;;;;;;;;;;;;;;;10.65;92.28;100566.56;4890332;29;20026;-78
2023/01/05 11:30:15;;;;;;;;;;;;;;;10.68;91.76;100565.50;4917203;29;19991;-78
2023/01/05 11:32:42;;;;;;;;;;;;;;;10.68;90.66;100569.97;4899878;29;20286;-78
2023/01/05 11:35:32;;;;;;;;;;;;;;;10.68;90.34;100570.81;4905332;29;20470;-78
2023/01/05 11:37:59;;;;;;;;;;;;;;;10.74;88.75;100570.34;4858357;29;20360;-79
2023/01/05 11:40:27;;;;;;;;;;;;;;;10.70;90.00;100566.22;4901956;29;19924;-78
2023/01/05 11:42:54;;;;;;;;;;;;;;;10.73;91.03;100565.13;4912079;29;19975;-78
2023/01/05 11:45:21;;;;;;;;;;;;;;;10.72;91.69;100566.97;4918791;29;20002;-78
2023/01/05 11:47:49;;;;;;;;;;;;;;;10.74;91.99;100578.31;4908622;29;20010;-78
2023/01/05 11:50:17;;;;;;;;;;;;;;;10.75;91.20;100569.38;4921015;29;20288;-78
2023/01/05 11:52:45;;;;;;;;;;;;;;;10.76;91.39;100567.53;4918742;29;20286;-78
2023/01/05 11:55:18;;;;;;;;;;;;;;;10.76;91.20;100572.88;4890518;29;19933;-78
2023/01/05 11:57:45;;;;;;;;;;;;;;;10.76;90.63;100572.88;4880028;29;19923;-79
2023/01/05 12:00:25;;;;;;;;;;;;;;;10.78;91.80;100573.59;4918858;29;19930;-78
2023/01/05 12:02:58;;;;;;;;;;;;;;;10.80;92.16;100572.50;4874746;29;19927;-77
2023/01/05 12:05:45;;;;;;;;;;;;;;;10.84;91.88;100566.00;4898577;29;20014;-78
2023/01/05 12:08:31;;;;;;;;;;;;;;;10.92;91.91;100570.72;4870499;29;19986;-77
2023/01/05 12:10:58;;;;;;;;;;;;;;;10.92;89.89;100581.34;4896162;29;20401;-78
2023/01/05 12:13:32;;;;;;;;;;;;;;;10.92;91.12;100570.72;4906256;29;19930;-78
2023/01/05 12:15:59;;;;;;;;;;;;;;;10.89;90.71;100576.28;4843716;29;19931;-79
2023/01/05 12:18:46;;;;;;;;;;;;;;;10.89;91.10;100578.94;4904290;29;20027;-79
2023/01/05 12:21:19;;;;;;;;;;;;;;;10.88;91.55;100585.19;4873297;29;20255;-77
2023/01/05 12:23:51;;;;;;;;;;;;;;;10.88;91.60;100587.84;4825351;29;19924;-78
2023/01/05 12:26:27;;;;;;;;;;;;;;;10.86;91.10;100574.72;4828258;29;20384;-79
2023/01/05 12:29:03;;;;;;;;;;;;;;;10.93;92.67;100588.34;4807488;29;19931;-79
2023/01/05 12:31:58;;;;;;;;;;;;;;;10.94;91.81;100587.41;4770385;29;19928;-80
2023/01/05 12:34:54;;;;;;;;;;;;;;;10.95;92.40;100586.41;4822525;29;20401;-79
2023/01/05 12:37:27;;;;;;;;;;;;;;;10.89;88.38;100584.25;4817691;29;19924;-79
2023/01/05 12:40:01;;;;;;;;;;;;;;;10.92;90.35;100585.81;4832812;29;20007;-79
2023/01/05 12:42:27;;;;;;;;;;;;;;;10.90;90.53;100579.78;4820072;29;19965;-79
2023/01/05 12:45:12;;;;;;;;;;;;;;;10.90;91.07;100577.97;4829350;29;19928;-79
2023/01/05 12:47:43;;;;;;;;;;;;;;;10.89;91.24;100578.06;4837220;29;19935;-78
2023/01/05 12:50:21;;;;;;;;;;;;;;;10.90;91.77;100577.97;4827939;29;19932;-79
2023/01/05 12:52:48;;;;;;;;;;;;;;;10.88;90.28;100587.00;4819960;29;20405;-78
2023/01/05 12:55:16;;;;;;;;;;;;;;;10.87;91.16;100583.53;4893148;29;19924;-79
2023/01/05 12:57:47;;;;;;;;;;;;;;;10.84;90.41;100586.41;4891401;29;19979;-78
2023/01/05 13:00:15;;;;;;;;;;;;;;;10.86;91.32;100573.84;4918156;29;20284;-78
2023/01/05 13:03:00;;;;;;;;;;;;;;;10.86;91.23;100577.38;4895901;29;19930;-80
2023/01/05 13:05:27;;;;;;;;;;;;;;;10.86;90.77;100580.03;4867060;29;19930;-78
2023/01/05 13:07:55;;;;;;;;;;;;;;;10.88;90.62;100585.19;4909466;29;19945;-79
2023/01/05 13:10:45;;;;;;;;;;;;;;;10.88;90.79;100587.00;4892680;29;19958;-78
2023/01/05 13:13:13;;;;;;;;;;;;;;;10.88;89.88;100584.34;4818848;29;19931;-79
2023/01/05 13:15:41;;;;;;;;;;;;;;;10.86;89.24;100593.31;4840346;29;19923;-79
2023/01/05 13:18:13;;;;;;;;;;;;;;;10.86;90.00;100590.66;4842940;29;19931;-79
2023/01/05 13:21:00;;;;;;;;;;;;;;;10.85;88.30;100582.78;4858035;29;20138;-79
2023/01/05 13:23:28;;;;;;;;;;;;;;;10.86;90.03;100600.41;4824484;29;19931;-79
2023/01/05 13:25:56;;;;;;;;;;;;;;;10.87;90.04;100596.81;4858072;29;20091;-80